M I D A S
Marine Information and Data Acquisition System
Tripno 1231 of the Zeeleeuw from 2007-03-14 09:39:51 to 2007-03-14 15:19:52
Back to CruiseResearch ActivitiesStationsMapUnderway DataData graphs

EquipmentUnitsComment
TimeDGPSUTC
LatitudeDGPSDM.mWGS84
LongitudeDGPSDM.mWGS84
HeadingGyrodeg 
SOGDGPSknotsSpeed over ground
COGDGPSdegCourse over ground
DepthEcho soundermeters200 kHz
Missing or incorrect values are displayed as -999
Navigation data collected by the RV Zeeleeuw from 2007-03-14 07:26:35 to 2007-03-14 15:30:33
                                                                                    Next 1000 lines
Time Latitude Longitude Heading SOG COG Depth
2007-03-14 07:26:45 51°13.597 2°56.094 127 0.1 101 -999
2007-03-14 07:26:50 51°13.597 2°56.094 127 -999 200 -999
2007-03-14 07:26:55 51°13.597 2°56.094 127 0.1 345 -999
2007-03-14 07:27:00 51°13.597 2°56.094 126.6 0.1 278 -999
2007-03-14 07:27:05 51°13.597 2°56.094 126.4 0.1 303 -999
2007-03-14 07:27:10 51°13.597 2°56.094 126.3 0.1 357 -999
2007-03-14 07:27:15 51°13.597 2°56.094 126.2 -999 341 -999
2007-03-14 07:27:20 51°13.597 2°56.094 125.9 -999 353 -999
2007-03-14 07:27:25 51°13.597 2°56.094 125.9 -999 276 -999
2007-03-14 07:27:30 51°13.597 2°56.094 126.1 -999 343 -999
2007-03-14 07:27:35 51°13.597 2°56.094 126.2 -999 156 -999
2007-03-14 07:27:40 51°13.597 2°56.094 126.2 -999 116 -999
2007-03-14 07:27:45 51°13.597 2°56.094 126.2 -999 137 -999
2007-03-14 07:27:50 51°13.597 2°56.094 126.2 -999 213 -999
2007-03-14 07:27:55 51°13.597 2°56.094 126.1 -999 16 -999
2007-03-14 07:28:00 51°13.597 2°56.094 126.1 -999 105 -999
2007-03-14 07:28:05 51°13.597 2°56.094 126 -999 118 -999
2007-03-14 07:28:10 51°13.597 2°56.094 126 -999 297 -999
2007-03-14 07:28:15 51°13.597 2°56.094 126 -999 286 -999
2007-03-14 07:28:20 51°13.597 2°56.094 126 -999 20 -999
2007-03-14 07:28:25 51°13.597 2°56.094 126 -999 354 -999
2007-03-14 07:28:30 51°13.597 2°56.094 126 -999 16 -999
2007-03-14 07:28:35 51°13.597 2°56.094 126 -999 166 -999
2007-03-14 07:28:40 51°13.597 2°56.094 126 -999 125 -999
2007-03-14 07:28:45 51°13.598 2°56.094 126 -999 90 -999
2007-03-14 07:28:50 51°13.598 2°56.094 126 -999 19 -999
2007-03-14 07:28:55 51°13.598 2°56.094 126 -999 168 -999
2007-03-14 07:29:00 51°13.598 2°56.094 126 -999 200 -999
2007-03-14 07:29:05 51°13.598 2°56.094 126 -999 342 -999
2007-03-14 07:29:10 51°13.598 2°56.094 126 -999 194 -999
2007-03-14 07:29:15 51°13.598 2°56.094 126 -999 351 -999
2007-03-14 07:29:20 51°13.598 2°56.094 126 -999 209 -999
2007-03-14 07:29:25 51°13.598 2°56.094 126 -999 19 -999
2007-03-14 07:29:30 51°13.598 2°56.094 126 -999 342 -999
2007-03-14 07:29:35 51°13.598 2°56.094 126 -999 73 -999
2007-03-14 07:29:40 51°13.598 2°56.094 126 0.1 167 -999
2007-03-14 07:29:45 51°13.598 2°56.094 126 -999 226 -999
2007-03-14 07:29:50 51°13.598 2°56.094 126.1 -999 351 -999
2007-03-14 07:29:55 51°13.598 2°56.094 126.1 -999 256 -999
2007-03-14 07:30:00 51°13.598 2°56.094 126.2 -999 359 -999
2007-03-14 07:30:05 51°13.598 2°56.094 126.2 -999 27 -999
2007-03-14 07:30:10 51°13.598 2°56.094 126.2 -999 8 -999
2007-03-14 07:30:15 51°13.598 2°56.094 126.2 -999 56 -999
2007-03-14 07:30:20 51°13.598 2°56.094 126.3 -999 212 -999
2007-03-14 07:30:25 51°13.598 2°56.094 126.3 -999 177 -999
2007-03-14 07:30:30 51°13.598 2°56.094 126.3 -999 210 -999
2007-03-14 07:30:35 51°13.598 2°56.094 126.3 -999 298 -999
2007-03-14 07:30:40 51°13.598 2°56.094 126.3 -999 334 -999
2007-03-14 07:30:45 51°13.598 2°56.094 126.3 -999 281 -999
2007-03-14 07:30:50 51°13.598 2°56.094 126.2 -999 262 -999
2007-03-14 07:30:55 51°13.598 2°56.094 126.2 -999 325 -999
2007-03-14 07:31:00 51°13.598 2°56.094 126.1 -999 5 -999
2007-03-14 07:31:05 51°13.598 2°56.094 126.1 -999 57 -999
2007-03-14 07:31:10 51°13.598 2°56.094 126.1 -999 46 -999
2007-03-14 07:31:15 51°13.598 2°56.094 126.1 -999 35 -999
2007-03-14 07:31:20 51°13.598 2°56.094 126 -999 340 -999
2007-03-14 07:31:25 51°13.598 2°56.094 126 -999 7 -999
2007-03-14 07:31:30 51°13.598 2°56.094 126 -999 353 -999
2007-03-14 07:31:35 51°13.598 2°56.094 126.1 -999 5 -999
2007-03-14 07:31:40 51°13.598 2°56.094 126.1 -999 195 -999
2007-03-14 07:31:45 51°13.598 2°56.094 126.1 -999 70 -999
2007-03-14 07:31:50 51°13.598 2°56.094 126.1 -999 182 -999
2007-03-14 07:31:55 51°13.598 2°56.094 126.2 -999 74 -999
2007-03-14 07:32:00 51°13.598 2°56.094 126.2 -999 203 -999
2007-03-14 07:32:05 51°13.598 2°56.094 126.2 -999 5 -999
2007-03-14 07:32:10 51°13.598 2°56.094 126.2 -999 266 -999
2007-03-14 07:32:15 51°13.598 2°56.094 126.2 -999 290 -999
2007-03-14 07:32:20 51°13.598 2°56.094 126.3 -999 166 -999
2007-03-14 07:32:25 51°13.598 2°56.094 126.3 -999 301 -999
2007-03-14 07:32:30 51°13.598 2°56.094 126.3 -999 196 -999
2007-03-14 07:32:35 51°13.599 2°56.094 126.3 -999 332 -999
2007-03-14 07:32:40 51°13.599 2°56.094 126.3 -999 325 -999
2007-03-14 07:32:45 51°13.599 2°56.094 126.3 -999 306 -999
2007-03-14 07:32:50 51°13.599 2°56.094 126.3 -999 317 -999
2007-03-14 07:32:55 51°13.598 2°56.094 126.3 -999 317 -999
2007-03-14 07:33:00 51°13.598 2°56.094 126.3 -999 251 -999
2007-03-14 07:33:05 51°13.598 2°56.094 126.3 -999 63 -999
2007-03-14 07:33:10 51°13.598 2°56.094 126.3 -999 29 -999
2007-03-14 07:33:15 51°13.598 2°56.094 126.3 -999 82 -999
2007-03-14 07:33:20 51°13.598 2°56.094 126.3 -999 137 -999
2007-03-14 07:33:25 51°13.598 2°56.094 126.3 -999 74 -999
2007-03-14 07:33:30 51°13.598 2°56.094 126.3 -999 95 -999
2007-03-14 07:33:35 51°13.598 2°56.094 126.4 -999 183 -999
2007-03-14 07:33:40 51°13.598 2°56.094 126.4 -999 180 -999
2007-03-14 07:33:45 51°13.598 2°56.094 126.4 -999 111 -999
2007-03-14 07:33:50 51°13.597 2°56.094 126.7 -999 165 -999
2007-03-14 07:33:55 51°13.597 2°56.094 126.8 -999 47 -999
2007-03-14 07:34:00 51°13.597 2°56.094 126.8 -999 158 -999
2007-03-14 07:34:05 51°13.597 2°56.094 126.8 -999 39 -999
2007-03-14 07:34:10 51°13.597 2°56.094 126.8 -999 188 -999
2007-03-14 07:34:15 51°13.597 2°56.094 126.8 -999 242 -999
2007-03-14 07:34:20 51°13.597 2°56.094 126.6 -999 1 -999
2007-03-14 07:34:25 51°13.597 2°56.094 126.5 -999 249 -999
2007-03-14 07:34:30 51°13.598 2°56.094 126.4 0.1 6 -999
2007-03-14 07:34:35 51°13.598 2°56.094 126.2 -999 291 -999
2007-03-14 07:34:40 51°13.598 2°56.094 126 0.1 315 -999
2007-03-14 07:34:45 51°13.598 2°56.094 125.8 0.1 340 -999
2007-03-14 07:34:50 51°13.598 2°56.094 125.5 0.1 239 -999
2007-03-14 07:34:55 51°13.598 2°56.094 125.5 -999 33 -999
2007-03-14 07:35:00 51°13.598 2°56.094 125.5 -999 101 -999
2007-03-14 07:35:05 51°13.598 2°56.094 125.5 -999 174 -999
2007-03-14 07:35:10 51°13.598 2°56.094 125.5 0.1 60 -999
2007-03-14 07:35:15 51°13.598 2°56.094 125.6 -999 190 -999
2007-03-14 07:35:20 51°13.598 2°56.094 125.7 -999 46 -999
2007-03-14 07:35:25 51°13.598 2°56.094 125.6 -999 242 -999
2007-03-14 07:35:30 51°13.598 2°56.094 125.6 -999 1 -999
2007-03-14 07:35:35 51°13.598 2°56.094 125.6 -999 220 -999
2007-03-14 07:35:40 51°13.598 2°56.094 125.6 -999 85 -999
2007-03-14 07:35:45 51°13.598 2°56.094 125.6 -999 62 -999
2007-03-14 07:35:50 51°13.597 2°56.094 125.6 -999 214 -999
2007-03-14 07:35:55 51°13.597 2°56.094 125.6 -999 56 -999
2007-03-14 07:36:00 51°13.597 2°56.094 125.6 -999 16 -999
2007-03-14 07:36:05 51°13.597 2°56.094 125.6 -999 18 -999
2007-03-14 07:36:10 51°13.597 2°56.094 125.6 -999 199 -999
2007-03-14 07:36:15 51°13.597 2°56.094 125.6 -999 38 -999
2007-03-14 07:36:20 51°13.597 2°56.094 125.6 -999 223 -999
2007-03-14 07:36:25 51°13.597 2°56.094 125.6 -999 124 -999
2007-03-14 07:36:30 51°13.597 2°56.094 125.6 -999 211 -999
2007-03-14 07:36:35 51°13.598 2°56.094 125.6 -999 28 -999
2007-03-14 07:36:40 51°13.597 2°56.094 125.6 -999 152 -999
2007-03-14 07:36:45 51°13.598 2°56.094 125.6 -999 188 -999
2007-03-14 07:36:50 51°13.598 2°56.094 125.6 -999 143 -999
2007-03-14 07:36:55 51°13.598 2°56.094 125.6 -999 13 -999
2007-03-14 07:37:00 51°13.598 2°56.094 125.6 -999 23 -999
2007-03-14 07:37:05 51°13.598 2°56.094 125.6 -999 172 -999
2007-03-14 07:37:10 51°13.598 2°56.094 125.6 -999 330 -999
2007-03-14 07:37:15 51°13.598 2°56.094 125.8 -999 129 -999
2007-03-14 07:37:20 51°13.598 2°56.094 126 -999 177 -999
2007-03-14 07:37:25 51°13.598 2°56.095 126 -999 194 -999
2007-03-14 07:37:30 51°13.598 2°56.095 126.1 -999 77 -999
2007-03-14 07:37:35 51°13.598 2°56.095 126.1 0.1 186 -999
2007-03-14 07:37:40 51°13.598 2°56.095 126.1 -999 286 -999
2007-03-14 07:37:45 51°13.598 2°56.095 126.1 -999 4 -999
2007-03-14 07:37:50 51°13.598 2°56.095 126.1 -999 270 -999
2007-03-14 07:37:55 51°13.599 2°56.095 125.8 -999 337 -999
2007-03-14 07:38:00 51°13.599 2°56.095 125.6 -999 307 -999
2007-03-14 07:38:05 51°13.599 2°56.095 125.5 -999 290 -999
2007-03-14 07:38:10 51°13.599 2°56.094 125.2 0.1 317 -999
2007-03-14 07:38:15 51°13.599 2°56.094 125 -999 286 -999
2007-03-14 07:38:20 51°13.599 2°56.094 124.9 -999 338 -999
2007-03-14 07:38:25 51°13.599 2°56.094 124.8 -999 312 -999
2007-03-14 07:38:30 51°13.599 2°56.094 124.7 -999 236 -999
2007-03-14 07:38:35 51°13.599 2°56.094 124.7 -999 16 -999
2007-03-14 07:38:40 51°13.599 2°56.094 124.7 -999 265 -999
2007-03-14 07:38:45 51°13.599 2°56.094 124.7 -999 76 -999
2007-03-14 07:38:50 51°13.599 2°56.094 124.8 -999 204 -999
2007-03-14 07:38:55 51°13.599 2°56.094 124.8 -999 27 -999
2007-03-14 07:39:00 51°13.599 2°56.094 124.8 -999 49 -999
2007-03-14 07:39:05 51°13.599 2°56.094 124.8 -999 212 -999
2007-03-14 07:39:10 51°13.599 2°56.094 124.8 -999 354 -999
2007-03-14 07:39:15 51°13.599 2°56.094 124.8 -999 325 -999
2007-03-14 07:39:20 51°13.599 2°56.094 124.8 -999 165 -999
2007-03-14 07:39:25 51°13.599 2°56.094 124.8 -999 174 -999
2007-03-14 07:39:30 51°13.599 2°56.094 124.9 -999 37 -999
2007-03-14 07:39:35 51°13.599 2°56.094 124.9 -999 260 -999
2007-03-14 07:39:40 51°13.599 2°56.095 125 -999 120 -999
2007-03-14 07:39:45 51°13.599 2°56.095 125.1 -999 102 -999
2007-03-14 07:39:50 51°13.599 2°56.095 125.1 -999 219 -999
2007-03-14 07:39:55 51°13.599 2°56.095 125.2 -999 59 -999
2007-03-14 07:40:00 51°13.599 2°56.095 125.3 -999 171 -999
2007-03-14 07:40:05 51°13.599 2°56.095 125.4 -999 193 -999
2007-03-14 07:40:10 51°13.599 2°56.095 125.5 -999 200 -999
2007-03-14 07:40:15 51°13.599 2°56.095 125.5 -999 73 -999
2007-03-14 07:40:20 51°13.599 2°56.095 125.5 -999 197 -999
2007-03-14 07:40:25 51°13.599 2°56.095 125.6 -999 11 -999
2007-03-14 07:40:30 51°13.599 2°56.095 125.6 -999 269 -999
2007-03-14 07:40:35 51°13.599 2°56.095 125.6 -999 343 -999
2007-03-14 07:40:40 51°13.599 2°56.095 125.6 -999 321 -999
2007-03-14 07:40:45 51°13.599 2°56.095 125.6 -999 15 -999
2007-03-14 07:40:50 51°13.599 2°56.095 125.6 -999 213 -999
2007-03-14 07:40:55 51°13.599 2°56.095 125.5 -999 21 -999
2007-03-14 07:41:00 51°13.599 2°56.095 125.5 -999 204 -999
2007-03-14 07:41:05 51°13.598 2°56.095 125.5 -999 115 -999
2007-03-14 07:41:10 51°13.598 2°56.095 125.5 -999 259 -999
2007-03-14 07:41:15 51°13.598 2°56.095 125.5 0.1 16 -999
2007-03-14 07:41:20 51°13.598 2°56.095 125.5 -999 222 -999
2007-03-14 07:41:25 51°13.598 2°56.095 125.5 -999 202 -999
2007-03-14 07:41:30 51°13.598 2°56.095 125.5 0.1 216 -999
2007-03-14 07:41:35 51°13.598 2°56.095 125.5 -999 33 -999
2007-03-14 07:41:40 51°13.598 2°56.095 125.5 -999 37 -999
2007-03-14 07:41:45 51°13.598 2°56.095 125.5 -999 273 -999
2007-03-14 07:41:50 51°13.598 2°56.095 125.5 -999 300 -999
2007-03-14 07:41:55 51°13.598 2°56.095 125.5 -999 3 -999
2007-03-14 07:42:00 51°13.598 2°56.094 125.5 -999 299 -999
2007-03-14 07:42:05 51°13.598 2°56.094 125.5 -999 229 -999
2007-03-14 07:42:10 51°13.598 2°56.094 125.5 -999 138 -999
2007-03-14 07:42:15 51°13.598 2°56.094 125.5 -999 193 -999
2007-03-14 07:42:20 51°13.598 2°56.094 125.5 -999 44 -999
2007-03-14 07:42:25 51°13.598 2°56.094 125.5 -999 134 -999
2007-03-14 07:42:30 51°13.598 2°56.094 125.5 -999 84 -999
2007-03-14 07:42:35 51°13.598 2°56.094 125.5 -999 247 -999
2007-03-14 07:42:40 51°13.598 2°56.094 125.6 -999 216 -999
2007-03-14 07:42:45 51°13.598 2°56.094 125.6 -999 69 -999
2007-03-14 07:42:50 51°13.598 2°56.094 125.7 -999 242 -999
2007-03-14 07:42:55 51°13.598 2°56.094 125.7 -999 52 -999
2007-03-14 07:43:00 51°13.598 2°56.094 125.7 -999 126 -999
2007-03-14 07:43:05 51°13.598 2°56.094 125.7 -999 174 -999
2007-03-14 07:43:10 51°13.598 2°56.094 125.7 -999 349 -999
2007-03-14 07:43:15 51°13.598 2°56.094 125.7 -999 331 -999
2007-03-14 07:43:20 51°13.598 2°56.094 125.8 -999 353 -999
2007-03-14 07:43:25 51°13.598 2°56.095 125.8 -999 342 -999
2007-03-14 07:43:30 51°13.598 2°56.095 125.8 -999 343 -999
2007-03-14 07:43:35 51°13.598 2°56.095 125.8 -999 240 -999
2007-03-14 07:43:40 51°13.598 2°56.095 125.8 -999 109 -999
2007-03-14 07:43:45 51°13.598 2°56.095 125.8 -999 266 -999
2007-03-14 07:43:50 51°13.598 2°56.095 125.8 -999 288 -999
2007-03-14 07:43:55 51°13.598 2°56.095 125.9 -999 256 -999
2007-03-14 07:44:00 51°13.598 2°56.095 125.9 -999 2 -999
2007-03-14 07:44:05 51°13.598 2°56.095 125.9 -999 250 -999
2007-03-14 07:44:10 51°13.598 2°56.095 126 -999 195 -999
2007-03-14 07:44:15 51°13.598 2°56.095 126.1 -999 185 -999
2007-03-14 07:44:20 51°13.598 2°56.095 126 -999 181 -999
2007-03-14 07:44:25 51°13.598 2°56.095 126 -999 261 -999
2007-03-14 07:44:30 51°13.598 2°56.095 126 -999 358 -999
2007-03-14 07:44:35 51°13.598 2°56.095 126 -999 -999 -999
2007-03-14 07:44:40 51°13.598 2°56.095 126 -999 339 -999
2007-03-14 07:44:45 51°13.598 2°56.095 126 -999 336 -999
2007-03-14 07:44:50 51°13.598 2°56.095 126 -999 202 -999
2007-03-14 07:44:55 51°13.598 2°56.095 126 -999 268 -999
2007-03-14 07:45:00 51°13.598 2°56.095 126 -999 296 -999
2007-03-14 07:45:05 51°13.598 2°56.095 126 -999 191 -999
2007-03-14 07:45:10 51°13.598 2°56.095 125.9 -999 7 -999
2007-03-14 07:45:15 51°13.598 2°56.095 125.9 -999 156 -999
2007-03-14 07:45:20 51°13.598 2°56.095 125.9 -999 297 -999
2007-03-14 07:45:25 51°13.598 2°56.095 125.9 -999 22 -999
2007-03-14 07:45:30 51°13.598 2°56.095 125.9 -999 280 -999
2007-03-14 07:45:35 51°13.598 2°56.095 125.9 -999 160 -999
2007-03-14 07:45:40 51°13.598 2°56.095 125.9 -999 192 -999
2007-03-14 07:45:45 51°13.598 2°56.095 125.9 -999 233 -999
2007-03-14 07:45:50 51°13.598 2°56.095 125.9 -999 285 -999
2007-03-14 07:45:55 51°13.598 2°56.095 125.9 -999 343 -999
2007-03-14 07:46:00 51°13.598 2°56.095 125.9 -999 80 -999
2007-03-14 07:46:05 51°13.598 2°56.095 125.9 -999 266 -999
2007-03-14 07:46:10 51°13.598 2°56.095 125.9 -999 164 -999
2007-03-14 07:46:15 51°13.598 2°56.095 125.9 -999 42 -999
2007-03-14 07:46:20 51°13.598 2°56.095 125.9 -999 218 -999
2007-03-14 07:46:25 51°13.598 2°56.095 125.9 -999 280 -999
2007-03-14 07:46:30 51°13.598 2°56.095 125.9 -999 354 -999
2007-03-14 07:46:35 51°13.598 2°56.096 125.9 -999 47 -999
2007-03-14 07:46:40 51°13.598 2°56.096 125.9 -999 246 -999
2007-03-14 07:46:45 51°13.598 2°56.096 125.9 -999 243 -999
2007-03-14 07:46:50 51°13.598 2°56.096 125.9 -999 113 -999
2007-03-14 07:46:55 51°13.598 2°56.096 125.9 -999 131 -999
2007-03-14 07:47:00 51°13.598 2°56.096 125.8 -999 321 -999
2007-03-14 07:47:05 51°13.598 2°56.096 125.8 -999 344 -999
2007-03-14 07:47:10 51°13.598 2°56.096 125.8 -999 194 -999
2007-03-14 07:47:15 51°13.598 2°56.096 125.8 -999 350 -999
2007-03-14 07:47:20 51°13.598 2°56.096 125.8 -999 24 -999
2007-03-14 07:47:25 51°13.598 2°56.096 125.7 -999 306 -999
2007-03-14 07:47:30 51°13.598 2°56.095 125.7 -999 340 -999
2007-03-14 07:47:35 51°13.598 2°56.095 125.7 -999 244 -999
2007-03-14 07:47:40 51°13.598 2°56.095 125.7 -999 185 -999
2007-03-14 07:47:45 51°13.598 2°56.095 125.7 -999 209 -999
2007-03-14 07:47:50 51°13.598 2°56.095 125.7 -999 305 -999
2007-03-14 07:47:55 51°13.598 2°56.095 125.7 -999 229 -999
2007-03-14 07:48:00 51°13.598 2°56.095 125.6 -999 101 -999
2007-03-14 07:48:05 51°13.598 2°56.095 125.6 -999 178 -999
2007-03-14 07:48:10 51°13.598 2°56.095 125.6 -999 351 -999
2007-03-14 07:48:15 51°13.598 2°56.095 125.6 -999 4 -999
2007-03-14 07:48:20 51°13.598 2°56.095 125.6 -999 326 -999
2007-03-14 07:48:25 51°13.598 2°56.095 125.6 -999 6 -999
2007-03-14 07:48:30 51°13.598 2°56.095 125.6 -999 246 -999
2007-03-14 07:48:35 51°13.598 2°56.095 125.6 -999 -999 -999
2007-03-14 07:48:40 51°13.598 2°56.094 125.6 -999 262 -999
2007-03-14 07:48:45 51°13.598 2°56.094 125.6 -999 70 -999
2007-03-14 07:48:50 51°13.598 2°56.094 125.6 -999 205 -999
2007-03-14 07:48:55 51°13.598 2°56.094 125.5 -999 66 -999
2007-03-14 07:49:00 51°13.598 2°56.095 125.5 -999 299 -999
2007-03-14 07:49:05 51°13.598 2°56.095 125.5 -999 322 -999
2007-03-14 07:49:10 51°13.598 2°56.095 125.6 -999 301 -999
2007-03-14 07:49:15 51°13.598 2°56.095 125.6 -999 353 -999
2007-03-14 07:49:20 51°13.598 2°56.095 125.5 -999 16 -999
2007-03-14 07:49:25 51°13.598 2°56.095 125.5 -999 2 -999
2007-03-14 07:49:30 51°13.598 2°56.095 125.5 -999 203 -999
2007-03-14 07:49:35 51°13.599 2°56.095 125.5 -999 356 -999
2007-03-14 07:49:40 51°13.599 2°56.095 125.5 -999 283 -999
2007-03-14 07:49:45 51°13.599 2°56.095 125.5 -999 335 -999
2007-03-14 07:49:50 51°13.599 2°56.095 125.5 -999 37 -999
2007-03-14 07:49:55 51°13.599 2°56.094 125.5 -999 68 -999
2007-03-14 07:50:00 51°13.599 2°56.094 125.5 -999 312 -999
2007-03-14 07:50:05 51°13.599 2°56.094 125.5 -999 306 -999
2007-03-14 07:50:10 51°13.599 2°56.094 125.5 -999 293 -999
2007-03-14 07:50:15 51°13.599 2°56.094 125.5 -999 13 -999
2007-03-14 07:50:20 51°13.599 2°56.094 125.5 -999 280 -999
2007-03-14 07:50:25 51°13.599 2°56.094 125.5 -999 121 -999
2007-03-14 07:50:30 51°13.599 2°56.094 125.5 -999 101 -999
2007-03-14 07:50:35 51°13.599 2°56.094 125.5 -999 186 -999
2007-03-14 07:50:40 51°13.599 2°56.094 125.5 -999 284 -999
2007-03-14 07:50:45 51°13.599 2°56.094 125.5 -999 325 -999
2007-03-14 07:50:50 51°13.599 2°56.094 125.5 -999 245 -999
2007-03-14 07:50:55 51°13.599 2°56.094 125.5 -999 34 -999
2007-03-14 07:51:00 51°13.599 2°56.094 125.5 -999 275 -999
2007-03-14 07:51:05 51°13.599 2°56.094 125.5 -999 90 -999
2007-03-14 07:51:10 51°13.599 2°56.094 125.5 -999 141 -999
2007-03-14 07:51:15 51°13.599 2°56.094 125.6 -999 16 -999
2007-03-14 07:51:20 51°13.599 2°56.094 125.6 -999 230 -999
2007-03-14 07:51:25 51°13.599 2°56.094 125.6 -999 193 -999
2007-03-14 07:51:30 51°13.599 2°56.094 125.6 -999 226 -999
2007-03-14 07:51:35 51°13.599 2°56.094 125.6 -999 259 -999
2007-03-14 07:51:40 51°13.599 2°56.094 125.6 -999 319 -999
2007-03-14 07:51:45 51°13.599 2°56.094 125.5 -999 150 -999
2007-03-14 07:51:50 51°13.599 2°56.094 125.5 -999 309 -999
2007-03-14 07:51:55 51°13.599 2°56.094 125.5 -999 320 -999
2007-03-14 07:52:00 51°13.599 2°56.094 125.5 -999 270 -999
2007-03-14 07:52:05 51°13.599 2°56.094 125.5 -999 257 -999
2007-03-14 07:52:10 51°13.599 2°56.094 125.6 -999 113 -999
2007-03-14 07:52:15 51°13.599 2°56.094 125.6 -999 228 -999
2007-03-14 07:52:20 51°13.599 2°56.094 125.6 -999 339 -999
2007-03-14 07:52:25 51°13.599 2°56.094 125.6 -999 175 -999
2007-03-14 07:52:30 51°13.599 2°56.094 125.6 -999 126 -999
2007-03-14 07:52:35 51°13.599 2°56.094 125.6 -999 131 -999
2007-03-14 07:52:40 51°13.599 2°56.094 125.6 -999 32 -999
2007-03-14 07:52:45 51°13.599 2°56.094 125.6 -999 320 -999
2007-03-14 07:52:50 51°13.599 2°56.094 125.7 -999 346 -999
2007-03-14 07:52:55 51°13.599 2°56.094 125.7 -999 328 -999
2007-03-14 07:53:00 51°13.599 2°56.094 125.7 -999 278 -999
2007-03-14 07:53:05 51°13.599 2°56.094 125.7 -999 162 -999
2007-03-14 07:53:10 51°13.599 2°56.094 125.7 -999 297 -999
2007-03-14 07:53:15 51°13.599 2°56.094 125.7 -999 357 -999
2007-03-14 07:53:20 51°13.599 2°56.094 125.7 -999 23 -999
2007-03-14 07:53:25 51°13.599 2°56.094 125.7 -999 265 -999
2007-03-14 07:53:30 51°13.599 2°56.094 125.7 -999 231 -999
2007-03-14 07:53:35 51°13.599 2°56.094 125.7 -999 236 -999
2007-03-14 07:53:40 51°13.599 2°56.094 125.7 -999 241 -999
2007-03-14 07:53:45 51°13.599 2°56.094 125.7 -999 70 -999
2007-03-14 07:53:50 51°13.599 2°56.094 125.7 -999 201 -999
2007-03-14 07:53:55 51°13.599 2°56.094 125.7 -999 323 -999
2007-03-14 07:54:00 51°13.599 2°56.094 125.7 -999 209 -999
2007-03-14 07:54:05 51°13.599 2°56.094 125.7 -999 202 -999
2007-03-14 07:54:10 51°13.599 2°56.094 125.8 -999 14 -999
2007-03-14 07:54:15 51°13.599 2°56.094 125.8 -999 149 -999
2007-03-14 07:54:20 51°13.599 2°56.093 125.8 -999 28 -999
2007-03-14 07:54:25 51°13.599 2°56.093 125.8 -999 316 -999
2007-03-14 07:54:30 51°13.598 2°56.094 125.8 -999 58 -999
2007-03-14 07:54:35 51°13.598 2°56.094 125.7 -999 97 -999
2007-03-14 07:54:40 51°13.598 2°56.094 125.7 -999 349 -999
2007-03-14 07:54:45 51°13.598 2°56.094 125.7 -999 213 -999
2007-03-14 07:54:50 51°13.598 2°56.094 125.7 -999 48 -999
2007-03-14 07:54:55 51°13.598 2°56.094 125.7 0.1 209 -999
2007-03-14 07:55:00 51°13.598 2°56.094 125.7 -999 10 -999
2007-03-14 07:55:05 51°13.598 2°56.094 125.7 -999 257 -999
2007-03-14 07:55:10 51°13.598 2°56.094 125.7 -999 338 -999
2007-03-14 07:55:15 51°13.598 2°56.094 125.7 -999 209 -999
2007-03-14 07:55:20 51°13.598 2°56.094 125.6 -999 28 -999
2007-03-14 07:55:25 51°13.599 2°56.094 125.6 -999 295 -999
2007-03-14 07:55:30 51°13.599 2°56.094 125.5 -999 356 -999
2007-03-14 07:55:35 51°13.599 2°56.094 125.5 -999 245 -999
2007-03-14 07:55:40 51°13.599 2°56.094 125.5 -999 341 -999
2007-03-14 07:55:45 51°13.599 2°56.094 125.5 -999 206 -999
2007-03-14 07:55:50 51°13.599 2°56.094 125.5 -999 183 -999
2007-03-14 07:55:55 51°13.599 2°56.094 125.5 -999 46 -999
2007-03-14 07:56:00 51°13.599 2°56.094 125.5 -999 244 -999
2007-03-14 07:56:05 51°13.599 2°56.094 125.5 -999 27 -999
2007-03-14 07:56:10 51°13.599 2°56.094 125.5 -999 280 -999
2007-03-14 07:56:15 51°13.599 2°56.094 125.5 -999 29 -999
2007-03-14 07:56:20 51°13.599 2°56.094 125.5 -999 175 -999
2007-03-14 07:56:25 51°13.599 2°56.094 125.5 -999 9 -999
2007-03-14 07:56:30 51°13.599 2°56.094 125.5 -999 253 -999
2007-03-14 07:56:35 51°13.599 2°56.094 125.5 -999 349 -999
2007-03-14 07:56:40 51°13.599 2°56.094 125.5 -999 227 -999
2007-03-14 07:56:45 51°13.599 2°56.094 125.5 -999 320 -999
2007-03-14 07:56:50 51°13.599 2°56.094 125.5 -999 307 -999
2007-03-14 07:56:55 51°13.599 2°56.094 125.5 -999 344 -999
2007-03-14 07:57:00 51°13.599 2°56.094 125.5 -999 298 -999
2007-03-14 07:57:05 51°13.599 2°56.094 125.4 -999 168 -999
2007-03-14 07:57:10 51°13.599 2°56.094 125.3 -999 358 -999
2007-03-14 07:57:15 51°13.599 2°56.094 125.3 -999 188 -999
2007-03-14 07:57:20 51°13.599 2°56.094 125.3 -999 107 -999
2007-03-14 07:57:25 51°13.599 2°56.094 125.3 -999 172 -999
2007-03-14 07:57:30 51°13.599 2°56.094 125.4 -999 190 -999
2007-03-14 07:57:35 51°13.599 2°56.094 125.4 -999 338 -999
2007-03-14 07:57:40 51°13.599 2°56.094 125.4 -999 291 -999
2007-03-14 07:57:45 51°13.599 2°56.094 125.4 -999 5 -999
2007-03-14 07:57:50 51°13.599 2°56.094 125.4 -999 124 -999
2007-03-14 07:57:55 51°13.599 2°56.094 125.4 -999 301 -999
2007-03-14 07:58:00 51°13.599 2°56.094 125.4 -999 230 -999
2007-03-14 07:58:05 51°13.599 2°56.094 125.3 -999 110 -999
2007-03-14 07:58:10 51°13.599 2°56.094 125.3 -999 346 -999
2007-03-14 07:58:15 51°13.599 2°56.094 125.3 -999 44 -999
2007-03-14 07:58:20 51°13.599 2°56.094 125.4 -999 52 -999
2007-03-14 07:58:25 51°13.599 2°56.094 125.5 -999 34 -999
2007-03-14 07:58:30 51°13.599 2°56.094 125.5 -999 236 -999
2007-03-14 07:58:35 51°13.599 2°56.094 125.5 -999 348 -999
2007-03-14 07:58:40 51°13.599 2°56.093 125.5 -999 271 -999
2007-03-14 07:58:45 51°13.599 2°56.094 125.5 -999 30 -999
2007-03-14 07:58:50 51°13.599 2°56.093 125.5 -999 14 -999
2007-03-14 07:58:55 51°13.598 2°56.093 125.5 -999 343 -999
2007-03-14 07:59:00 51°13.598 2°56.093 125.5 -999 199 -999
2007-03-14 07:59:05 51°13.598 2°56.093 125.5 -999 105 -999
2007-03-14 07:59:10 51°13.598 2°56.093 125.5 -999 184 -999
2007-03-14 07:59:15 51°13.598 2°56.093 125.5 -999 316 -999
2007-03-14 07:59:20 51°13.598 2°56.093 125.5 -999 121 -999
2007-03-14 07:59:25 51°13.598 2°56.093 125.5 -999 97 -999
2007-03-14 07:59:30 51°13.598 2°56.093 125.5 -999 194 -999
2007-03-14 07:59:35 51°13.598 2°56.093 125.6 -999 85 -999
2007-03-14 07:59:40 51°13.598 2°56.093 125.7 -999 188 -999
2007-03-14 07:59:45 51°13.599 2°56.094 125.7 -999 42 -999
2007-03-14 07:59:50 51°13.599 2°56.094 125.7 -999 296 -999
2007-03-14 07:59:55 51°13.599 2°56.094 125.7 -999 325 -999
2007-03-14 08:00:00 51°13.599 2°56.094 125.7 -999 354 -999
2007-03-14 08:00:05 51°13.599 2°56.094 125.8 -999 120 -999
2007-03-14 08:00:10 51°13.599 2°56.094 125.9 -999 17 -999
2007-03-14 08:00:15 51°13.599 2°56.094 125.9 -999 38 -999
2007-03-14 08:00:20 51°13.599 2°56.094 125.9 -999 355 -999
2007-03-14 08:00:25 51°13.599 2°56.094 125.9 -999 118 -999
2007-03-14 08:00:30 51°13.599 2°56.094 125.9 -999 317 -999
2007-03-14 08:00:35 51°13.599 2°56.094 125.9 -999 98 -999
2007-03-14 08:00:40 51°13.599 2°56.094 125.9 -999 232 -999
2007-03-14 08:00:45 51°13.599 2°56.094 125.9 -999 285 -999
2007-03-14 08:00:50 51°13.599 2°56.094 125.9 -999 26 -999
2007-03-14 08:00:55 51°13.599 2°56.094 125.8 -999 176 -999
2007-03-14 08:01:00 51°13.599 2°56.094 125.7 -999 16 -999
2007-03-14 08:01:05 51°13.599 2°56.094 125.7 -999 339 -999
2007-03-14 08:01:10 51°13.599 2°56.094 125.7 -999 208 -999
2007-03-14 08:01:15 51°13.599 2°56.094 125.7 -999 24 -999
2007-03-14 08:01:20 51°13.599 2°56.094 125.7 -999 30 -999
2007-03-14 08:01:25 51°13.599 2°56.094 125.7 -999 7 -999
2007-03-14 08:01:30 51°13.599 2°56.094 125.7 -999 230 -999
2007-03-14 08:01:35 51°13.599 2°56.094 125.8 -999 264 -999
2007-03-14 08:01:40 51°13.599 2°56.094 125.8 -999 316 -999
2007-03-14 08:01:45 51°13.599 2°56.094 125.8 -999 242 -999
2007-03-14 08:01:50 51°13.599 2°56.094 125.8 -999 315 -999
2007-03-14 08:01:55 51°13.599 2°56.094 125.8 -999 337 -999
2007-03-14 08:02:00 51°13.598 2°56.094 125.8 -999 338 -999
2007-03-14 08:02:05 51°13.598 2°56.094 125.8 -999 21 -999
2007-03-14 08:02:10 51°13.598 2°56.094 125.7 -999 51 -999
2007-03-14 08:02:15 51°13.598 2°56.094 125.7 -999 298 -999
2007-03-14 08:02:20 51°13.598 2°56.094 125.7 -999 275 -999
2007-03-14 08:02:25 51°13.598 2°56.094 125.7 -999 340 -999
2007-03-14 08:02:30 51°13.598 2°56.094 125.6 -999 1 -999
2007-03-14 08:02:35 51°13.598 2°56.094 125.6 -999 325 -999
2007-03-14 08:02:40 51°13.598 2°56.094 125.6 -999 179 -999
2007-03-14 08:02:45 51°13.598 2°56.094 125.6 -999 306 -999
2007-03-14 08:02:50 51°13.598 2°56.094 125.5 -999 329 -999
2007-03-14 08:02:55 51°13.598 2°56.094 125.5 -999 121 -999
2007-03-14 08:03:00 51°13.599 2°56.094 125.5 -999 1 -999
2007-03-14 08:03:05 51°13.599 2°56.095 125.5 -999 10 -999
2007-03-14 08:03:10 51°13.598 2°56.095 125.5 -999 226 -999
2007-03-14 08:03:15 51°13.598 2°56.095 125.5 -999 345 -999
2007-03-14 08:03:20 51°13.598 2°56.095 125.5 -999 214 -999
2007-03-14 08:03:25 51°13.598 2°56.095 125.5 -999 337 -999
2007-03-14 08:03:30 51°13.598 2°56.095 125.5 -999 353 -999
2007-03-14 08:03:35 51°13.598 2°56.094 125.5 -999 224 -999
2007-03-14 08:03:40 51°13.598 2°56.095 125.5 -999 14 -999
2007-03-14 08:03:45 51°13.598 2°56.095 125.5 -999 74 -999
2007-03-14 08:03:50 51°13.598 2°56.095 125.5 -999 223 -999
2007-03-14 08:03:55 51°13.598 2°56.095 125.6 -999 46 -999
2007-03-14 08:04:00 51°13.598 2°56.095 125.6 -999 4 -999
2007-03-14 08:04:05 51°13.598 2°56.095 125.6 -999 33 -999
2007-03-14 08:04:10 51°13.599 2°56.095 125.6 -999 44 -999
2007-03-14 08:04:15 51°13.599 2°56.095 125.6 -999 29 -999
2007-03-14 08:04:20 51°13.599 2°56.095 125.6 -999 38 -999
2007-03-14 08:04:25 51°13.599 2°56.095 125.6 -999 22 -999
2007-03-14 08:04:30 51°13.599 2°56.095 125.6 -999 11 -999
2007-03-14 08:04:35 51°13.599 2°56.095 125.6 -999 27 -999
2007-03-14 08:04:40 51°13.599 2°56.095 125.6 -999 35 -999
2007-03-14 08:04:45 51°13.599 2°56.095 125.6 -999 15 -999
2007-03-14 08:04:50 51°13.599 2°56.095 125.6 -999 10 -999
2007-03-14 08:04:55 51°13.599 2°56.095 125.6 -999 12 -999
2007-03-14 08:05:00 51°13.599 2°56.095 125.6 -999 346 -999
2007-03-14 08:05:05 51°13.599 2°56.095 125.6 -999 189 -999
2007-03-14 08:05:10 51°13.599 2°56.095 125.6 -999 169 -999
2007-03-14 08:05:15 51°13.599 2°56.095 125.6 -999 30 -999
2007-03-14 08:05:20 51°13.599 2°56.095 125.6 -999 65 -999
2007-03-14 08:05:25 51°13.599 2°56.096 125.6 -999 38 -999
2007-03-14 08:05:30 51°13.599 2°56.096 125.6 -999 35 -999
2007-03-14 08:05:35 51°13.599 2°56.095 125.6 -999 345 -999
2007-03-14 08:05:40 51°13.599 2°56.095 125.6 -999 70 -999
2007-03-14 08:05:45 51°13.599 2°56.095 125.6 -999 278 -999
2007-03-14 08:05:50 51°13.599 2°56.095 125.6 -999 208 -999
2007-03-14 08:05:55 51°13.599 2°56.095 125.7 -999 12 -999
2007-03-14 08:06:00 51°13.599 2°56.095 125.7 -999 17 -999
2007-03-14 08:06:05 51°13.599 2°56.095 125.7 -999 57 -999
2007-03-14 08:06:10 51°13.598 2°56.095 125.7 -999 3 -999
2007-03-14 08:06:15 51°13.598 2°56.095 125.7 -999 177 -999
2007-03-14 08:06:20 51°13.598 2°56.095 125.7 -999 230 -999
2007-03-14 08:06:25 51°13.598 2°56.095 125.7 -999 138 -999
2007-03-14 08:06:30 51°13.598 2°56.095 125.7 -999 213 -999
2007-03-14 08:06:35 51°13.597 2°56.094 125.7 -999 66 -999
2007-03-14 08:06:40 51°13.597 2°56.094 125.7 -999 20 -999
2007-03-14 08:06:45 51°13.597 2°56.094 125.7 -999 37 -999
2007-03-14 08:06:50 51°13.597 2°56.094 125.7 -999 64 -999
2007-03-14 08:06:55 51°13.597 2°56.094 125.7 -999 255 -999
2007-03-14 08:07:00 51°13.597 2°56.094 125.7 -999 358 -999
2007-03-14 08:07:05 51°13.597 2°56.094 125.7 -999 269 -999
2007-03-14 08:07:10 51°13.597 2°56.094 125.7 -999 176 -999
2007-03-14 08:07:15 51°13.597 2°56.094 125.7 -999 309 -999
2007-03-14 08:07:20 51°13.597 2°56.094 125.7 -999 263 -999
2007-03-14 08:07:25 51°13.597 2°56.094 125.7 -999 352 -999
2007-03-14 08:07:30 51°13.597 2°56.094 125.7 -999 203 -999
2007-03-14 08:07:35 51°13.597 2°56.094 125.7 -999 237 -999
2007-03-14 08:07:40 51°13.597 2°56.094 125.7 -999 166 -999
2007-03-14 08:07:45 51°13.597 2°56.094 125.7 -999 20 -999
2007-03-14 08:07:50 51°13.597 2°56.094 125.7 -999 34 -999
2007-03-14 08:07:55 51°13.597 2°56.094 125.7 -999 320 -999
2007-03-14 08:08:00 51°13.597 2°56.094 125.7 -999 17 -999
2007-03-14 08:08:05 51°13.597 2°56.094 125.7 -999 70 -999
2007-03-14 08:08:10 51°13.597 2°56.094 125.7 -999 237 -999
2007-03-14 08:08:15 51°13.597 2°56.094 125.7 -999 5 -999
2007-03-14 08:08:20 51°13.597 2°56.094 125.7 -999 221 -999
2007-03-14 08:08:25 51°13.597 2°56.094 125.7 -999 209 -999
2007-03-14 08:08:30 51°13.597 2°56.094 125.7 -999 31 -999
2007-03-14 08:08:35 51°13.597 2°56.094 125.7 -999 227 -999
2007-03-14 08:08:40 51°13.597 2°56.094 125.7 -999 169 -999
2007-03-14 08:08:45 51°13.597 2°56.093 125.7 -999 233 -999
2007-03-14 08:08:50 51°13.597 2°56.093 125.7 -999 9 -999
2007-03-14 08:08:55 51°13.597 2°56.093 125.7 -999 244 -999
2007-03-14 08:09:00 51°13.597 2°56.093 125.7 -999 215 -999
2007-03-14 08:09:05 51°13.597 2°56.093 125.7 -999 42 -999
2007-03-14 08:09:10 51°13.597 2°56.093 125.7 -999 31 -999
2007-03-14 08:09:15 51°13.597 2°56.093 125.7 -999 133 -999
2007-03-14 08:09:20 51°13.597 2°56.093 125.7 -999 277 -999
2007-03-14 08:09:25 51°13.597 2°56.093 125.7 -999 41 -999
2007-03-14 08:09:30 51°13.597 2°56.093 125.7 -999 19 -999
2007-03-14 08:09:35 51°13.597 2°56.093 125.7 -999 2 -999
2007-03-14 08:09:40 51°13.597 2°56.093 125.7 -999 211 -999
2007-03-14 08:09:45 51°13.597 2°56.093 125.7 -999 316 -999
2007-03-14 08:09:50 51°13.597 2°56.093 125.7 -999 16 -999
2007-03-14 08:09:55 51°13.597 2°56.093 125.7 -999 198 -999
2007-03-14 08:10:00 51°13.597 2°56.093 125.7 -999 273 -999
2007-03-14 08:10:05 51°13.597 2°56.093 125.7 -999 200 -999
2007-03-14 08:10:10 51°13.597 2°56.093 125.7 -999 99 -999
2007-03-14 08:10:15 51°13.597 2°56.093 125.7 -999 201 -999
2007-03-14 08:10:20 51°13.597 2°56.093 125.7 -999 237 -999
2007-03-14 08:10:25 51°13.597 2°56.093 125.7 -999 233 -999
2007-03-14 08:10:30 51°13.597 2°56.093 125.7 -999 320 -999
2007-03-14 08:10:35 51°13.597 2°56.093 125.7 -999 53 -999
2007-03-14 08:10:40 51°13.597 2°56.093 125.8 -999 218 -999
2007-03-14 08:10:45 51°13.597 2°56.093 125.8 -999 62 -999
2007-03-14 08:10:50 51°13.597 2°56.093 125.8 -999 207 -999
2007-03-14 08:10:55 51°13.597 2°56.093 125.8 -999 203 -999
2007-03-14 08:11:00 51°13.597 2°56.093 125.7 -999 230 -999
2007-03-14 08:11:05 51°13.597 2°56.093 125.7 -999 106 -999
2007-03-14 08:11:10 51°13.597 2°56.093 125.7 -999 218 -999
2007-03-14 08:11:15 51°13.597 2°56.093 125.7 -999 226 -999
2007-03-14 08:11:20 51°13.597 2°56.093 125.7 -999 13 -999
2007-03-14 08:11:25 51°13.597 2°56.093 125.7 -999 183 -999
2007-03-14 08:11:30 51°13.597 2°56.093 125.7 -999 215 -999
2007-03-14 08:11:35 51°13.597 2°56.093 125.7 -999 281 -999
2007-03-14 08:11:40 51°13.597 2°56.093 125.6 -999 75 -999
2007-03-14 08:11:45 51°13.597 2°56.094 125.6 -999 113 -999
2007-03-14 08:11:50 51°13.598 2°56.093 125.6 -999 220 -999
2007-03-14 08:11:55 51°13.598 2°56.094 125.6 -999 186 -999
2007-03-14 08:12:00 51°13.598 2°56.094 125.7 -999 194 -999
2007-03-14 08:12:05 51°13.598 2°56.094 125.7 -999 216 -999
2007-03-14 08:12:10 51°13.598 2°56.094 125.7 -999 231 -999
2007-03-14 08:12:15 51°13.598 2°56.094 125.7 -999 223 -999
2007-03-14 08:12:20 51°13.598 2°56.094 125.7 -999 168 -999
2007-03-14 08:12:25 51°13.598 2°56.094 125.7 -999 188 -999
2007-03-14 08:12:30 51°13.598 2°56.094 125.7 -999 215 -999
2007-03-14 08:12:35 51°13.598 2°56.094 125.7 -999 8 -999
2007-03-14 08:12:40 51°13.598 2°56.094 125.7 -999 205 -999
2007-03-14 08:12:45 51°13.598 2°56.094 125.7 -999 39 -999
2007-03-14 08:12:50 51°13.598 2°56.094 125.7 -999 204 -999
2007-03-14 08:12:55 51°13.598 2°56.094 125.7 -999 209 -999
2007-03-14 08:13:00 51°13.598 2°56.094 125.7 -999 18 -999
2007-03-14 08:13:05 51°13.598 2°56.094 125.7 -999 30 -999
2007-03-14 08:13:10 51°13.598 2°56.094 125.7 -999 178 -999
2007-03-14 08:13:15 51°13.598 2°56.094 125.7 -999 13 -999
2007-03-14 08:13:20 51°13.598 2°56.094 125.7 -999 22 -999
2007-03-14 08:13:25 51°13.598 2°56.094 125.7 -999 16 -999
2007-03-14 08:13:30 51°13.598 2°56.094 125.7 -999 18 -999
2007-03-14 08:13:35 51°13.598 2°56.094 125.7 -999 271 -999
2007-03-14 08:13:40 51°13.598 2°56.094 125.7 -999 232 -999
2007-03-14 08:13:45 51°13.598 2°56.093 125.7 -999 57 -999
2007-03-14 08:13:50 51°13.598 2°56.093 125.7 -999 208 -999
2007-03-14 08:13:55 51°13.598 2°56.093 125.8 -999 348 -999
2007-03-14 08:14:00 51°13.598 2°56.093 125.8 -999 31 -999
2007-03-14 08:14:05 51°13.598 2°56.093 125.8 -999 66 -999
2007-03-14 08:14:10 51°13.597 2°56.093 125.9 -999 178 -999
2007-03-14 08:14:15 51°13.597 2°56.093 126 -999 192 -999
2007-03-14 08:14:20 51°13.597 2°56.093 126 -999 156 -999
2007-03-14 08:14:25 51°13.597 2°56.093 126.1 -999 66 -999
2007-03-14 08:14:30 51°13.597 2°56.093 126.2 -999 357 -999
2007-03-14 08:14:35 51°13.597 2°56.093 126.2 -999 193 -999
2007-03-14 08:14:40 51°13.597 2°56.093 126.2 -999 179 -999
2007-03-14 08:14:45 51°13.598 2°56.093 126.2 -999 15 -999
2007-03-14 08:14:50 51°13.598 2°56.093 126.2 -999 180 -999
2007-03-14 08:14:55 51°13.598 2°56.093 126.2 -999 25 -999
2007-03-14 08:15:00 51°13.598 2°56.093 126.2 -999 279 -999
2007-03-14 08:15:05 51°13.598 2°56.093 126.2 -999 358 -999
2007-03-14 08:15:10 51°13.598 2°56.093 126.2 -999 243 -999
2007-03-14 08:15:15 51°13.598 2°56.093 126.2 -999 226 -999
2007-03-14 08:15:20 51°13.598 2°56.094 126.2 -999 20 -999
2007-03-14 08:15:25 51°13.598 2°56.094 126.2 -999 350 -999
2007-03-14 08:15:30 51°13.598 2°56.094 126.2 -999 56 -999
2007-03-14 08:15:35 51°13.598 2°56.094 126.2 -999 92 -999
2007-03-14 08:15:40 51°13.598 2°56.094 126.2 -999 147 -999
2007-03-14 08:15:45 51°13.598 2°56.094 126.2 -999 327 -999
2007-03-14 08:15:50 51°13.598 2°56.094 126.2 -999 116 -999
2007-03-14 08:15:55 51°13.598 2°56.094 126.2 -999 213 -999
2007-03-14 08:16:00 51°13.598 2°56.093 126.2 -999 320 -999
2007-03-14 08:16:05 51°13.599 2°56.094 126.2 -999 324 -999
2007-03-14 08:16:10 51°13.599 2°56.094 126.2 -999 188 -999
2007-03-14 08:16:15 51°13.599 2°56.094 126.2 -999 198 -999
2007-03-14 08:16:20 51°13.599 2°56.093 126.2 -999 268 -999
2007-03-14 08:16:25 51°13.599 2°56.093 126.2 -999 123 -999
2007-03-14 08:16:30 51°13.599 2°56.093 126.2 -999 219 -999
2007-03-14 08:16:35 51°13.599 2°56.093 126.2 -999 14 -999
2007-03-14 08:16:40 51°13.599 2°56.093 126.2 -999 185 -999
2007-03-14 08:16:45 51°13.599 2°56.093 126.2 -999 330 -999
2007-03-14 08:16:50 51°13.599 2°56.093 126.2 -999 331 -999
2007-03-14 08:16:55 51°13.599 2°56.093 126.2 -999 178 -999
2007-03-14 08:17:00 51°13.599 2°56.093 126.2 -999 250 -999
2007-03-14 08:17:05 51°13.599 2°56.093 126.2 -999 356 -999
2007-03-14 08:17:10 51°13.599 2°56.094 126.2 -999 359 -999
2007-03-14 08:17:15 51°13.599 2°56.094 126.2 -999 335 -999
2007-03-14 08:17:20 51°13.599 2°56.094 126.2 -999 304 -999
2007-03-14 08:17:25 51°13.599 2°56.094 126.2 -999 184 -999
2007-03-14 08:17:30 51°13.599 2°56.094 126.2 -999 154 -999
2007-03-14 08:17:35 51°13.599 2°56.094 126.2 -999 48 -999
2007-03-14 08:17:40 51°13.598 2°56.094 126.2 -999 131 -999
2007-03-14 08:17:45 51°13.598 2°56.094 126.2 -999 192 -999
2007-03-14 08:17:50 51°13.598 2°56.094 126.2 -999 298 -999
2007-03-14 08:17:55 51°13.598 2°56.094 126.2 -999 183 -999
2007-03-14 08:18:00 51°13.598 2°56.094 126.2 -999 321 -999
2007-03-14 08:18:05 51°13.598 2°56.094 126.2 -999 50 -999
2007-03-14 08:18:10 51°13.598 2°56.094 126.2 -999 175 -999
2007-03-14 08:18:15 51°13.598 2°56.094 126.2 -999 262 -999
2007-03-14 08:18:20 51°13.598 2°56.094 126.2 -999 318 -999
2007-03-14 08:18:25 51°13.598 2°56.094 126.2 -999 231 -999
2007-03-14 08:18:30 51°13.598 2°56.094 126.2 -999 131 -999
2007-03-14 08:18:35 51°13.598 2°56.094 126.2 0.1 165 -999
2007-03-14 08:18:40 51°13.598 2°56.094 126.2 -999 229 -999
2007-03-14 08:18:45 51°13.598 2°56.094 126.2 -999 5 -999
2007-03-14 08:18:50 51°13.598 2°56.094 126.2 -999 166 -999
2007-03-14 08:18:55 51°13.598 2°56.094 126.2 -999 267 -999
2007-03-14 08:19:00 51°13.597 2°56.094 126.2 -999 188 -999
2007-03-14 08:19:05 51°13.597 2°56.094 126.2 -999 318 -999
2007-03-14 08:19:10 51°13.597 2°56.094 126.2 -999 58 -999
2007-03-14 08:19:15 51°13.597 2°56.094 126.2 -999 336 -999
2007-03-14 08:19:20 51°13.597 2°56.094 126.2 -999 237 -999
2007-03-14 08:19:25 51°13.597 2°56.094 126.2 -999 144 -999
2007-03-14 08:19:30 51°13.597 2°56.094 126.2 -999 296 -999
2007-03-14 08:19:35 51°13.597 2°56.094 126.2 -999 265 -999
2007-03-14 08:19:40 51°13.597 2°56.094 126.2 -999 225 -999
2007-03-14 08:19:45 51°13.597 2°56.094 126.2 -999 184 -999
2007-03-14 08:19:50 51°13.597 2°56.094 126.2 -999 325 -999
2007-03-14 08:19:55 51°13.597 2°56.094 126.1 -999 324 -999
2007-03-14 08:20:00 51°13.597 2°56.094 126.1 -999 177 -999
2007-03-14 08:20:05 51°13.597 2°56.094 126.1 -999 157 -999
2007-03-14 08:20:10 51°13.597 2°56.094 126 -999 157 -999
2007-03-14 08:20:15 51°13.597 2°56.094 126 -999 120 -999
2007-03-14 08:20:20 51°13.597 2°56.094 126 -999 167 -999
2007-03-14 08:20:25 51°13.597 2°56.094 126 -999 138 -999
2007-03-14 08:20:30 51°13.597 2°56.094 126 -999 54 -999
2007-03-14 08:20:35 51°13.597 2°56.094 126 -999 164 -999
2007-03-14 08:20:40 51°13.597 2°56.093 126 -999 328 -999
2007-03-14 08:20:45 51°13.597 2°56.093 126 -999 288 -999
2007-03-14 08:20:50 51°13.597 2°56.093 126 -999 282 -999
2007-03-14 08:20:55 51°13.597 2°56.093 126 -999 206 -999
2007-03-14 08:21:00 51°13.597 2°56.093 126 -999 231 -999
2007-03-14 08:21:05 51°13.597 2°56.093 126 -999 302 -999
2007-03-14 08:21:10 51°13.597 2°56.093 126 -999 256 -999
2007-03-14 08:21:15 51°13.597 2°56.093 126 -999 55 -999
2007-03-14 08:21:20 51°13.597 2°56.093 126 -999 289 -999
2007-03-14 08:21:25 51°13.597 2°56.093 126 -999 93 -999
2007-03-14 08:21:30 51°13.597 2°56.093 126 -999 319 -999
2007-03-14 08:21:35 51°13.597 2°56.093 126 -999 295 -999
2007-03-14 08:21:40 51°13.597 2°56.093 126 -999 327 -999
2007-03-14 08:21:45 51°13.597 2°56.093 126 -999 312 -999
2007-03-14 08:21:50 51°13.597 2°56.093 126 -999 254 -999
2007-03-14 08:21:55 51°13.597 2°56.093 126 -999 86 -999
2007-03-14 08:22:00 51°13.598 2°56.093 126 -999 100 -999
2007-03-14 08:22:05 51°13.598 2°56.093 126 -999 154 -999
2007-03-14 08:22:10 51°13.598 2°56.093 126 -999 96 -999
2007-03-14 08:22:15 51°13.598 2°56.093 126 -999 200 -999
2007-03-14 08:22:20 51°13.598 2°56.093 126 -999 359 -999
2007-03-14 08:22:25 51°13.598 2°56.093 126 -999 80 -999
2007-03-14 08:22:30 51°13.598 2°56.093 126 -999 6 -999
2007-03-14 08:22:35 51°13.598 2°56.093 126 -999 144 -999
2007-03-14 08:22:40 51°13.598 2°56.093 126 -999 71 -999
2007-03-14 08:22:45 51°13.598 2°56.093 126 -999 129 -999
2007-03-14 08:22:50 51°13.598 2°56.093 126 -999 75 -999
2007-03-14 08:22:55 51°13.598 2°56.093 126 -999 330 -999
2007-03-14 08:23:00 51°13.598 2°56.093 126 -999 249 -999
2007-03-14 08:23:05 51°13.599 2°56.093 126 -999 11 -999
2007-03-14 08:23:10 51°13.599 2°56.093 126 -999 91 -999
2007-03-14 08:23:15 51°13.599 2°56.093 126 -999 71 -999
2007-03-14 08:23:20 51°13.599 2°56.093 126 -999 282 -999
2007-03-14 08:23:25 51°13.599 2°56.093 126 -999 6 -999
2007-03-14 08:23:30 51°13.599 2°56.093 126.1 -999 333 -999
2007-03-14 08:23:35 51°13.599 2°56.093 126.1 -999 208 -999
2007-03-14 08:23:40 51°13.599 2°56.093 126.1 -999 250 -999
2007-03-14 08:23:45 51°13.599 2°56.093 126.1 -999 258 -999
2007-03-14 08:23:50 51°13.599 2°56.093 126.1 -999 6 -999
2007-03-14 08:23:55 51°13.599 2°56.093 126.1 -999 261 -999
2007-03-14 08:24:00 51°13.599 2°56.093 126.1 -999 230 -999
2007-03-14 08:24:05 51°13.599 2°56.093 126.1 -999 114 -999
2007-03-14 08:24:10 51°13.599 2°56.093 126 -999 173 -999
2007-03-14 08:24:15 51°13.599 2°56.094 126 -999 235 -999
2007-03-14 08:24:20 51°13.599 2°56.094 126 -999 285 -999
2007-03-14 08:24:25 51°13.599 2°56.094 126 -999 108 -999
2007-03-14 08:24:30 51°13.599 2°56.094 126 -999 260 -999
2007-03-14 08:24:35 51°13.599 2°56.094 126 -999 13 -999
2007-03-14 08:24:40 51°13.599 2°56.094 126 -999 228 -999
2007-03-14 08:24:45 51°13.599 2°56.094 126 -999 16 -999
2007-03-14 08:24:50 51°13.599 2°56.094 126 -999 244 -999
2007-03-14 08:24:55 51°13.599 2°56.094 126 -999 316 -999
2007-03-14 08:25:00 51°13.599 2°56.094 126 -999 238 -999
2007-03-14 08:25:05 51°13.6 2°56.094 126 -999 209 -999
2007-03-14 08:25:10 51°13.6 2°56.094 126 -999 199 -999
2007-03-14 08:25:15 51°13.6 2°56.094 126 -999 280 -999
2007-03-14 08:25:20 51°13.6 2°56.094 126 -999 51 -999
2007-03-14 08:25:25 51°13.6 2°56.094 126 -999 213 -999
2007-03-14 08:25:30 51°13.6 2°56.094 126 -999 239 -999
2007-03-14 08:25:35 51°13.6 2°56.094 126 -999 265 -999
2007-03-14 08:25:40 51°13.6 2°56.094 126 -999 342 -999
2007-03-14 08:25:45 51°13.6 2°56.094 126 -999 216 -999
2007-03-14 08:25:50 51°13.6 2°56.094 126 -999 250 -999
2007-03-14 08:25:55 51°13.6 2°56.094 126 -999 267 -999
2007-03-14 08:26:00 51°13.6 2°56.094 126 -999 357 -999
2007-03-14 08:26:05 51°13.6 2°56.094 126 -999 48 -999
2007-03-14 08:26:10 51°13.6 2°56.095 126 -999 188 -999
2007-03-14 08:26:15 51°13.6 2°56.095 126 -999 342 -999
2007-03-14 08:26:20 51°13.6 2°56.095 126 -999 240 -999
2007-03-14 08:26:25 51°13.6 2°56.095 126 -999 10 -999
2007-03-14 08:26:30 51°13.6 2°56.095 126 -999 240 -999
2007-03-14 08:26:35 51°13.6 2°56.094 126 -999 238 -999
2007-03-14 08:26:40 51°13.6 2°56.094 126 -999 261 -999
2007-03-14 08:26:45 51°13.6 2°56.094 126 -999 269 -999
2007-03-14 08:26:50 51°13.6 2°56.094 126 -999 120 -999
2007-03-14 08:26:55 51°13.6 2°56.094 126 -999 235 -999
2007-03-14 08:27:00 51°13.6 2°56.094 126 -999 105 -999
2007-03-14 08:27:05 51°13.6 2°56.094 126 -999 199 -999
2007-03-14 08:27:10 51°13.6 2°56.094 126 -999 87 -999
2007-03-14 08:27:15 51°13.6 2°56.094 126 -999 160 -999
2007-03-14 08:27:20 51°13.599 2°56.094 126 -999 284 -999
2007-03-14 08:27:25 51°13.599 2°56.094 126 -999 278 -999
2007-03-14 08:27:30 51°13.599 2°56.094 126 -999 264 -999
2007-03-14 08:27:35 51°13.599 2°56.094 126 -999 198 -999
2007-03-14 08:27:40 51°13.599 2°56.094 126 -999 271 -999
2007-03-14 08:27:45 51°13.599 2°56.094 126 -999 158 -999
2007-03-14 08:27:50 51°13.599 2°56.094 126 -999 165 -999
2007-03-14 08:27:55 51°13.599 2°56.094 126 -999 102 -999
2007-03-14 08:28:00 51°13.599 2°56.094 126 -999 327 -999
2007-03-14 08:28:05 51°13.599 2°56.095 126 -999 209 -999
2007-03-14 08:28:10 51°13.599 2°56.095 126 -999 313 -999
2007-03-14 08:28:15 51°13.599 2°56.095 126 -999 243 -999
2007-03-14 08:28:20 51°13.599 2°56.095 126 -999 286 -999
2007-03-14 08:28:25 51°13.599 2°56.095 126 -999 208 -999
2007-03-14 08:28:30 51°13.599 2°56.095 126 -999 28 -999
2007-03-14 08:28:35 51°13.599 2°56.095 125.9 -999 302 -999
2007-03-14 08:28:40 51°13.599 2°56.095 125.9 -999 156 -999
2007-03-14 08:28:45 51°13.599 2°56.095 125.9 -999 144 -999
2007-03-14 08:28:50 51°13.599 2°56.095 125.9 -999 248 -999
2007-03-14 08:28:55 51°13.599 2°56.095 125.9 -999 357 -999
2007-03-14 08:29:00 51°13.599 2°56.094 125.9 -999 236 -999
2007-03-14 08:29:05 51°13.599 2°56.094 125.9 -999 292 -999
2007-03-14 08:29:10 51°13.598 2°56.094 125.9 -999 225 -999
2007-03-14 08:29:15 51°13.598 2°56.094 125.9 -999 249 -999
2007-03-14 08:29:20 51°13.598 2°56.094 125.9 -999 258 -999
2007-03-14 08:29:25 51°13.598 2°56.094 125.9 -999 198 -999
2007-03-14 08:29:30 51°13.598 2°56.094 125.9 -999 25 -999
2007-03-14 08:29:35 51°13.598 2°56.094 125.9 -999 59 -999
2007-03-14 08:29:40 51°13.598 2°56.094 125.9 -999 301 -999
2007-03-14 08:29:45 51°13.598 2°56.094 125.9 -999 223 -999
2007-03-14 08:29:50 51°13.598 2°56.094 125.9 -999 6 -999
2007-03-14 08:29:55 51°13.598 2°56.094 125.9 -999 288 -999
2007-03-14 08:30:00 51°13.598 2°56.094 125.9 -999 344 -999
2007-03-14 08:30:05 51°13.598 2°56.094 125.9 -999 301 -999
2007-03-14 08:30:10 51°13.598 2°56.094 125.9 -999 233 -999
2007-03-14 08:30:15 51°13.598 2°56.094 125.9 -999 172 -999
2007-03-14 08:30:20 51°13.598 2°56.094 125.9 -999 250 -999
2007-03-14 08:30:25 51°13.598 2°56.094 125.9 -999 2 -999
2007-03-14 08:30:30 51°13.598 2°56.094 125.9 -999 218 -999
2007-03-14 08:30:35 51°13.598 2°56.094 125.9 -999 190 -999
2007-03-14 08:30:40 51°13.598 2°56.094 125.9 -999 281 -999
2007-03-14 08:30:45 51°13.598 2°56.094 125.9 -999 342 -999
2007-03-14 08:30:50 51°13.598 2°56.094 125.9 -999 216 -999
2007-03-14 08:30:55 51°13.599 2°56.094 125.9 -999 219 -999
2007-03-14 08:31:00 51°13.599 2°56.094 125.9 -999 71 -999
2007-03-14 08:31:05 51°13.599 2°56.094 125.9 -999 148 -999
2007-03-14 08:31:10 51°13.599 2°56.094 125.9 -999 204 -999
2007-03-14 08:31:15 51°13.599 2°56.094 125.9 -999 -999 -999
2007-03-14 08:31:20 51°13.599 2°56.094 125.9 -999 333 -999
2007-03-14 08:31:25 51°13.599 2°56.094 125.9 -999 231 -999
2007-03-14 08:31:30 51°13.599 2°56.094 125.9 -999 14 -999
2007-03-14 08:31:35 51°13.599 2°56.094 125.9 -999 268 -999
2007-03-14 08:31:40 51°13.599 2°56.094 125.9 -999 43 -999
2007-03-14 08:31:45 51°13.599 2°56.094 125.9 -999 4 -999
2007-03-14 08:31:50 51°13.599 2°56.094 125.9 -999 238 -999
2007-03-14 08:31:55 51°13.599 2°56.094 125.9 -999 192 -999
2007-03-14 08:32:00 51°13.599 2°56.094 125.9 -999 245 -999
2007-03-14 08:32:05 51°13.599 2°56.094 125.9 -999 48 -999
2007-03-14 08:32:10 51°13.599 2°56.094 125.9 -999 343 -999
2007-03-14 08:32:15 51°13.599 2°56.094 125.9 -999 274 -999
2007-03-14 08:32:20 51°13.599 2°56.094 125.8 -999 269 -999
2007-03-14 08:32:25 51°13.599 2°56.094 125.8 -999 39 -999
2007-03-14 08:32:30 51°13.599 2°56.094 125.8 -999 327 -999
2007-03-14 08:32:35 51°13.599 2°56.094 125.8 -999 249 -999
2007-03-14 08:32:40 51°13.599 2°56.094 125.8 -999 297 -999
2007-03-14 08:32:45 51°13.599 2°56.094 125.8 -999 248 -999
2007-03-14 08:32:50 51°13.599 2°56.094 125.8 -999 16 -999
2007-03-14 08:32:55 51°13.599 2°56.094 125.8 -999 239 -999
2007-03-14 08:33:00 51°13.599 2°56.094 125.8 -999 257 -999
2007-03-14 08:33:05 51°13.599 2°56.094 125.8 -999 284 -999
2007-03-14 08:33:10 51°13.599 2°56.094 125.8 -999 301 -999
2007-03-14 08:33:15 51°13.599 2°56.094 125.8 -999 25 -999
2007-03-14 08:33:20 51°13.599 2°56.094 125.8 -999 286 -999
2007-03-14 08:33:25 51°13.599 2°56.094 125.8 -999 196 -999
2007-03-14 08:33:30 51°13.599 2°56.094 125.8 -999 74 -999
2007-03-14 08:33:35 51°13.599 2°56.094 125.8 -999 139 -999
2007-03-14 08:33:40 51°13.599 2°56.094 125.8 -999 20 -999
2007-03-14 08:33:45 51°13.599 2°56.094 125.8 -999 230 -999
2007-03-14 08:33:50 51°13.599 2°56.094 125.8 -999 305 -999
2007-03-14 08:33:55 51°13.599 2°56.094 125.8 -999 19 -999
2007-03-14 08:34:00 51°13.599 2°56.094 125.8 -999 13 -999
2007-03-14 08:34:05 51°13.599 2°56.094 125.8 -999 278 -999
2007-03-14 08:34:10 51°13.599 2°56.094 125.8 -999 104 -999
2007-03-14 08:34:15 51°13.599 2°56.094 125.8 -999 208 -999
2007-03-14 08:34:20 51°13.599 2°56.094 125.8 -999 216 -999
2007-03-14 08:34:25 51°13.599 2°56.094 125.8 -999 251 -999
2007-03-14 08:34:30 51°13.599 2°56.094 125.8 -999 239 -999
2007-03-14 08:34:35 51°13.599 2°56.094 125.8 -999 272 -999
2007-03-14 08:34:40 51°13.599 2°56.094 125.8 -999 247 -999
2007-03-14 08:34:45 51°13.599 2°56.094 125.8 -999 88 -999
2007-03-14 08:34:50 51°13.599 2°56.094 125.8 -999 259 -999
2007-03-14 08:34:55 51°13.599 2°56.094 125.8 -999 256 -999
2007-03-14 08:35:00 51°13.599 2°56.094 125.8 -999 243 -999
2007-03-14 08:35:05 51°13.599 2°56.094 125.8 -999 299 -999
2007-03-14 08:35:10 51°13.599 2°56.094 125.8 -999 143 -999
2007-03-14 08:35:15 51°13.598 2°56.094 125.8 -999 107 -999
2007-03-14 08:35:20 51°13.598 2°56.094 125.8 -999 199 -999
2007-03-14 08:35:25 51°13.598 2°56.094 125.8 -999 204 -999
2007-03-14 08:35:30 51°13.598 2°56.094 125.8 -999 240 -999
2007-03-14 08:35:35 51°13.598 2°56.094 125.8 -999 230 -999
2007-03-14 08:35:40 51°13.598 2°56.094 125.8 -999 194 -999
2007-03-14 08:35:45 51°13.599 2°56.094 125.8 -999 266 -999
2007-03-14 08:35:50 51°13.599 2°56.094 125.8 -999 275 -999
2007-03-14 08:35:55 51°13.599 2°56.094 125.8 -999 252 -999
2007-03-14 08:36:00 51°13.599 2°56.094 125.8 -999 231 -999
2007-03-14 08:36:05 51°13.599 2°56.094 125.8 -999 67 -999
2007-03-14 08:36:10 51°13.599 2°56.094 125.8 -999 198 -999
2007-03-14 08:36:15 51°13.599 2°56.094 125.8 -999 304 -999
2007-03-14 08:36:20 51°13.599 2°56.094 125.8 0.1 214 -999
2007-03-14 08:36:25 51°13.599 2°56.094 125.8 -999 182 -999
2007-03-14 08:36:30 51°13.599 2°56.094 125.8 -999 219 -999
2007-03-14 08:36:35 51°13.599 2°56.094 125.8 -999 25 -999
2007-03-14 08:36:40 51°13.599 2°56.094 125.8 -999 71 -999
2007-03-14 08:36:45 51°13.599 2°56.095 125.8 -999 112 -999
2007-03-14 08:36:50 51°13.599 2°56.095 125.8 -999 133 -999
2007-03-14 08:36:55 51°13.599 2°56.095 125.9 -999 172 -999
2007-03-14 08:37:00 51°13.599 2°56.095 126 -999 256 -999
2007-03-14 08:37:05 51°13.599 2°56.094 126 -999 303 -999
2007-03-14 08:37:10 51°13.599 2°56.094 126 -999 223 -999
2007-03-14 08:37:15 51°13.599 2°56.094 126 -999 268 -999
2007-03-14 08:37:20 51°13.599 2°56.094 126 -999 10 -999
2007-03-14 08:37:25 51°13.599 2°56.094 126 -999 306 -999
2007-03-14 08:37:30 51°13.599 2°56.094 125.9 -999 53 -999
2007-03-14 08:37:35 51°13.599 2°56.094 125.9 -999 319 -999
2007-03-14 08:37:40 51°13.599 2°56.094 125.9 -999 190 -999
2007-03-14 08:37:45 51°13.599 2°56.094 125.9 -999 260 -999
2007-03-14 08:37:50 51°13.599 2°56.094 125.9 -999 58 -999
2007-03-14 08:37:55 51°13.599 2°56.094 125.9 -999 200 -999
2007-03-14 08:38:00 51°13.599 2°56.094 125.9 -999 3 -999
2007-03-14 08:38:05 51°13.599 2°56.094 125.8 -999 296 -999
2007-03-14 08:38:10 51°13.599 2°56.094 125.8 -999 297 -999
2007-03-14 08:38:15 51°13.599 2°56.094 125.8 -999 305 -999
2007-03-14 08:38:20 51°13.599 2°56.094 125.6 -999 281 -999
2007-03-14 08:38:25 51°13.599 2°56.094 125.5 -999 261 -999
2007-03-14 08:38:30 51°13.599 2°56.094 125.5 -999 14 -999
2007-03-14 08:38:35 51°13.599 2°56.094 125.5 -999 216 -999
2007-03-14 08:38:40 51°13.599 2°56.094 125.4 -999 323 -999
2007-03-14 08:38:45 51°13.599 2°56.094 125.4 -999 223 -999
2007-03-14 08:38:50 51°13.599 2°56.095 125.5 -999 253 -999
2007-03-14 08:38:55 51°13.599 2°56.095 125.6 -999 245 -999
2007-03-14 08:39:00 51°13.599 2°56.095 125.6 -999 298 -999
2007-03-14 08:39:05 51°13.599 2°56.095 125.6 0.1 278 -999
2007-03-14 08:39:10 51°13.599 2°56.095 125.6 -999 159 -999
2007-03-14 08:39:15 51°13.599 2°56.095 125.5 0.1 31 -999
2007-03-14 08:39:20 51°13.599 2°56.094 125.3 0.1 233 -999
2007-03-14 08:39:25 51°13.599 2°56.095 125.1 -999 343 -999
2007-03-14 08:39:30 51°13.599 2°56.094 124.8 -999 290 -999
2007-03-14 08:39:35 51°13.599 2°56.094 124.6 -999 260 -999
2007-03-14 08:39:40 51°13.599 2°56.095 124.6 0.1 34 -999
2007-03-14 08:39:45 51°13.599 2°56.094 124.6 -999 216 -999
2007-03-14 08:39:50 51°13.599 2°56.094 124.6 -999 258 -999
2007-03-14 08:39:55 51°13.599 2°56.094 124.6 -999 121 -999
2007-03-14 08:40:00 51°13.599 2°56.094 124.8 0.1 162 -999
2007-03-14 08:40:05 51°13.599 2°56.095 125.4 0.1 135 -999
2007-03-14 08:40:10 51°13.599 2°56.095 126.2 0.2 124 -999
2007-03-14 08:40:15 51°13.599 2°56.095 127 0.2 135 -999
2007-03-14 08:40:20 51°13.599 2°56.095 127.4 0.1 124 -999
2007-03-14 08:40:25 51°13.599 2°56.095 127.1 0.1 277 -999
2007-03-14 08:40:30 51°13.599 2°56.095 127 0.1 274 -999
2007-03-14 08:40:35 51°13.599 2°56.095 126.6 0.1 325 -999
2007-03-14 08:40:40 51°13.599 2°56.095 126.3 0.1 270 -999
2007-03-14 08:40:45 51°13.599 2°56.095 126.1 0.1 347 -999
2007-03-14 08:40:50 51°13.599 2°56.095 126 0.1 245 -999
2007-03-14 08:40:55 51°13.599 2°56.095 125.9 -999 24 -999
2007-03-14 08:41:00 51°13.599 2°56.095 126 -999 57 -999
2007-03-14 08:41:05 51°13.599 2°56.095 126.4 -999 142 -999
2007-03-14 08:41:10 51°13.599 2°56.095 126.6 0.1 85 -999
2007-03-14 08:41:15 51°13.599 2°56.095 126.8 -999 166 -999
2007-03-14 08:41:20 51°13.599 2°56.095 126.8 -999 209 -999
2007-03-14 08:41:25 51°13.599 2°56.095 126.7 -999 233 -999
2007-03-14 08:41:30 51°13.599 2°56.095 126.7 -999 63 -999
2007-03-14 08:41:35 51°13.599 2°56.094 126.6 -999 334 -999
2007-03-14 08:41:40 51°13.599 2°56.094 126.5 -999 305 -999
2007-03-14 08:41:45 51°13.599 2°56.094 126.5 -999 72 -999
2007-03-14 08:41:50 51°13.599 2°56.094 126.5 -999 296 -999
2007-03-14 08:41:55 51°13.599 2°56.094 126.3 -999 281 -999
2007-03-14 08:42:00 51°13.599 2°56.094 126.2 -999 259 -999
2007-03-14 08:42:05 51°13.599 2°56.094 126.2 -999 134 -999
2007-03-14 08:42:10 51°13.599 2°56.094 126.1 -999 17 -999
2007-03-14 08:42:15 51°13.599 2°56.094 126.1 -999 301 -999
2007-03-14 08:42:20 51°13.599 2°56.094 125.9 -999 311 -999
2007-03-14 08:42:25 51°13.599 2°56.094 125.6 0.1 271 -999
2007-03-14 08:42:30 51°13.599 2°56.094 125.4 0.1 320 -999
2007-03-14 08:42:35 51°13.599 2°56.094 125.2 0.1 272 -999
2007-03-14 08:42:40 51°13.599 2°56.094 124.9 -999 312 -999
2007-03-14 08:42:45 51°13.599 2°56.094 124.7 -999 317 -999
2007-03-14 08:42:50 51°13.599 2°56.094 124.5 0.1 330 -999
2007-03-14 08:42:55 51°13.599 2°56.094 124.3 0.1 297 -999
2007-03-14 08:43:00 51°13.599 2°56.093 124.2 -999 301 -999
2007-03-14 08:43:05 51°13.599 2°56.093 124.2 -999 245 -999
2007-03-14 08:43:10 51°13.598 2°56.093 124.2 -999 208 -999
2007-03-14 08:43:15 51°13.598 2°56.093 124.4 -999 177 -999
2007-03-14 08:43:20 51°13.598 2°56.094 124.4 -999 49 -999
2007-03-14 08:43:25 51°13.598 2°56.094 124.4 -999 104 -999
2007-03-14 08:43:30 51°13.598 2°56.094 124.4 -999 236 -999
2007-03-14 08:43:35 51°13.598 2°56.094 124.3 0.1 230 -999
2007-03-14 08:43:40 51°13.598 2°56.094 124.2 -999 240 -999
2007-03-14 08:43:45 51°13.598 2°56.094 124.2 -999 198 -999
2007-03-14 08:43:50 51°13.598 2°56.093 124.2 -999 205 -999
2007-03-14 08:43:55 51°13.598 2°56.093 124.2 -999 219 -999
2007-03-14 08:44:00 51°13.598 2°56.093 124.3 -999 159 -999
2007-03-14 08:44:05 51°13.598 2°56.093 124.4 -999 241 -999
2007-03-14 08:44:10 51°13.598 2°56.093 124.4 -999 227 -999
2007-03-14 08:44:15 51°13.598 2°56.093 124.4 -999 222 -999
2007-03-14 08:44:20 51°13.598 2°56.093 124.4 -999 192 -999
2007-03-14 08:44:25 51°13.598 2°56.094 124.4 -999 37 -999
2007-03-14 08:44:30 51°13.598 2°56.094 124.4 -999 127 -999
2007-03-14 08:44:35 51°13.598 2°56.094 124.6 -999 113 -999
2007-03-14 08:44:40 51°13.598 2°56.094 124.7 -999 115 -999
2007-03-14 08:44:45 51°13.598 2°56.094 124.8 -999 133 -999
2007-03-14 08:44:50 51°13.598 2°56.094 125 -999 88 -999
2007-03-14 08:44:55 51°13.598 2°56.094 125 -999 103 -999
2007-03-14 08:45:00 51°13.598 2°56.094 125 -999 84 -999
2007-03-14 08:45:05 51°13.598 2°56.094 125.2 -999 24 -999
2007-03-14 08:45:10 51°13.598 2°56.094 125.2 -999 35 -999
2007-03-14 08:45:15 51°13.598 2°56.094 125.2 -999 318 -999
2007-03-14 08:45:20 51°13.598 2°56.094 125.2 -999 356 -999
2007-03-14 08:45:25 51°13.598 2°56.094 125.2 -999 264 -999
2007-03-14 08:45:30 51°13.598 2°56.094 125.2 -999 169 -999
2007-03-14 08:45:35 51°13.598 2°56.094 125.2 -999 94 -999
2007-03-14 08:45:40 51°13.598 2°56.094 125.2 -999 205 -999
2007-03-14 08:45:45 51°13.598 2°56.094 125.4 -999 198 -999
2007-03-14 08:45:50 51°13.598 2°56.094 125.5 -999 158 -999
2007-03-14 08:45:55 51°13.598 2°56.094 125.5 -999 147 -999
2007-03-14 08:46:00 51°13.598 2°56.094 125.5 -999 50 -999
2007-03-14 08:46:05 51°13.598 2°56.094 125.5 -999 314 -999
2007-03-14 08:46:10 51°13.598 2°56.094 125.5 -999 199 -999
2007-03-14 08:46:15 51°13.598 2°56.094 125.5 -999 140 -999
2007-03-14 08:46:20 51°13.598 2°56.094 125.6 -999 197 -999
2007-03-14 08:46:25 51°13.598 2°56.094 125.6 -999 256 -999
2007-03-14 08:46:30 51°13.598 2°56.094 125.8 -999 212 -999
2007-03-14 08:46:35 51°13.598 2°56.094 125.8 -999 338 -999
2007-03-14 08:46:40 51°13.598 2°56.094 125.9 -999 184 -999
2007-03-14 08:46:45 51°13.598 2°56.094 125.9 -999 51 -999
2007-03-14 08:46:50 51°13.598 2°56.094 125.9 -999 151 -999
2007-03-14 08:46:55 51°13.598 2°56.094 126.1 -999 62 -999
2007-03-14 08:47:00 51°13.598 2°56.094 126.2 -999 82 -999
2007-03-14 08:47:05 51°13.598 2°56.094 126.2 -999 131 -999
2007-03-14 08:47:10 51°13.598 2°56.094 126.5 -999 130 -999
2007-03-14 08:47:15 51°13.598 2°56.094 126.5 -999 137 -999
2007-03-14 08:47:20 51°13.598 2°56.094 126.5 -999 237 -999
2007-03-14 08:47:25 51°13.598 2°56.094 126.4 0.1 5 -999
2007-03-14 08:47:30 51°13.598 2°56.094 126.3 -999 314 -999
2007-03-14 08:47:35 51°13.598 2°56.094 125.9 -999 315 -999
2007-03-14 08:47:40 51°13.598 2°56.094 125.5 0.1 320 -999
2007-03-14 08:47:45 51°13.598 2°56.094 125.3 0.1 300 -999
2007-03-14 08:47:50 51°13.599 2°56.094 125.1 0.1 293 -999
2007-03-14 08:47:55 51°13.599 2°56.093 124.6 0.1 266 -999
2007-03-14 08:48:00 51°13.599 2°56.094 124.3 -999 33 -999
2007-03-14 08:48:05 51°13.599 2°56.094 124.3 -999 110 -999
2007-03-14 08:48:10 51°13.599 2°56.094 124.5 -999 222 -999
2007-03-14 08:48:15 51°13.599 2°56.094 124.9 -999 28 -999
2007-03-14 08:48:20 51°13.599 2°56.094 125.2 -999 70 -999
2007-03-14 08:48:25 51°13.599 2°56.094 125.3 0.1 213 -999
2007-03-14 08:48:30 51°13.599 2°56.094 125.3 -999 9 -999
2007-03-14 08:48:35 51°13.599 2°56.094 125.2 -999 41 -999
2007-03-14 08:48:40 51°13.599 2°56.094 125.1 -999 147 -999
2007-03-14 08:48:45 51°13.599 2°56.094 125.1 0.1 32 -999
2007-03-14 08:48:50 51°13.599 2°56.094 125.1 -999 203 -999
2007-03-14 08:48:55 51°13.599 2°56.094 125.1 -999 239 -999
2007-03-14 08:49:00 51°13.599 2°56.094 125.1 -999 116 -999
2007-03-14 08:49:05 51°13.599 2°56.094 125.2 -999 85 -999
2007-03-14 08:49:10 51°13.599 2°56.094 125.2 -999 229 -999
2007-03-14 08:49:15 51°13.599 2°56.094 125.2 -999 9 -999
2007-03-14 08:49:20 51°13.599 2°56.094 125.2 -999 239 -999
2007-03-14 08:49:25 51°13.599 2°56.093 125.2 -999 325 -999
2007-03-14 08:49:30 51°13.598 2°56.093 125.1 -999 69 -999
2007-03-14 08:49:35 51°13.598 2°56.093 125.1 -999 231 -999
2007-03-14 08:49:40 51°13.598 2°56.093 125 0.1 40 -999
2007-03-14 08:49:45 51°13.598 2°56.093 124.9 -999 24 -999
2007-03-14 08:49:50 51°13.598 2°56.093 124.9 -999 356 -999
2007-03-14 08:49:55 51°13.598 2°56.093 124.9 -999 211 -999